Time;durP1;ratioP1;P1;durP2;ratioP2;P2;SDS_P1;SDS_P2;PMS_P1;PMS_P2;Temp;Humidity;BMP_temperature;BMP_pressure;BME280_temperature;BME280_humidity;BME280_pressure;Samples;Min_cycle;Max_cycle;Signal;HPM_P1;HPM_P2
2022/08/23 07:29:49;;;;;;;13.00;9.80;;;;;;;22.20;79.25;98185.59;102124;1308;544991;-67
2022/08/23 07:32:16;;;;;;;6.40;5.70;;;;;;;22.08;79.13;98194.51;103843;1293;52174;-66
2022/08/23 07:34:44;;;;;;;16.90;9.90;;;;;;;22.00;79.43;98197.05;103684;1294;25475;-69
2022/08/23 07:37:12;;;;;;;13.50;9.50;;;;;;;21.93;79.55;98200.65;103627;1295;78296;-69
2022/08/23 07:39:39;;;;;;;13.60;9.80;;;;;;;21.84;79.35;98207.05;103621;1294;25303;-69
2022/08/23 07:42:07;;;;;;;12.10;9.90;;;;;;;21.75;79.49;98211.66;103613;1294;22557;-69
2022/08/23 07:44:34;;;;;;;13.80;10.40;;;;;;;21.68;79.73;98208.75;103348;1291;1406059;-71
2022/08/23 07:47:01;;;;;;;17.60;10.70;;;;;;;21.66;80.25;98209.38;104089;1291;25282;-71
2022/08/23 07:49:30;;;;;;;14.30;10.00;;;;;;;21.65;80.26;98207.93;104107;1291;25365;-71
2022/08/23 07:52:02;;;;;;;13.50;10.00;;;;;;;21.67;80.28;98205.14;104193;1292;25359;-70
2022/08/23 07:54:29;;;;;;;15.10;9.90;;;;;;;21.75;80.77;98205.11;104247;1292;22566;-68
2022/08/23 07:57:11;;;;;;;12.30;10.10;;;;;;;21.89;80.46;98207.55;104223;1291;24235;-68
2022/08/23 08:00:03;;;;;;;15.30;10.80;;;;;;;22.02;80.23;98207.53;104335;1291;27698;-69
2022/08/23 08:02:40;;;;;;;15.40;10.50;;;;;;;22.15;79.75;98213.03;104364;1288;22643;-69
2022/08/23 08:05:15;;;;;;;15.40;10.70;;;;;;;22.29;79.74;98203.67;104398;1288;22576;-69
2022/08/23 08:07:44;;;;;;;14.30;9.70;;;;;;;22.43;79.87;98203.03;104599;1287;22713;-68
2022/08/23 08:10:11;;;;;;;14.70;10.80;;;;;;;22.53;79.60;98204.52;104459;1288;25372;-68
2022/08/23 08:12:38;;;;;;;14.40;10.70;;;;;;;22.57;78.55;98209.10;104580;1289;25286;-68
2022/08/23 08:15:19;;;;;;;15.90;10.30;;;;;;;22.61;78.69;98210.54;104586;1289;23232;-70
2022/08/23 08:17:50;;;;;;;15.50;10.50;;;;;;;22.62;78.13;98209.88;104630;1289;22620;-69
2022/08/23 08:20:19;;;;;;;12.70;10.00;;;;;;;22.65;77.60;98217.39;104459;1288;22594;-69
2022/08/23 08:22:46;;;;;;;12.70;10.10;;;;;;;22.71;77.42;98219.29;104387;1288;24237;-68
2022/08/23 08:25:20;;;;;;;12.70;9.70;;;;;;;22.74;77.11;98218.73;104379;1288;23972;-70
2022/08/23 08:27:48;;;;;;;14.90;9.60;;;;;;;22.79;77.30;98225.28;104318;1288;25361;-69
2022/08/23 08:30:16;;;;;;;15.90;10.80;;;;;;;22.80;76.89;98225.77;104439;1288;25393;-70
2022/08/23 08:32:43;;;;;;;13.20;10.10;;;;;;;22.78;76.44;98227.67;104594;1289;25319;-69
2022/08/23 08:35:10;;;;;;;17.30;11.00;;;;;;;22.79;76.34;98233.61;104546;1289;24211;-68
2022/08/23 08:37:38;;;;;;;15.00;10.50;;;;;;;22.72;75.91;98237.98;104578;1289;22605;-69
2022/08/23 08:40:06;;;;;;;14.30;9.90;;;;;;;22.65;75.96;98241.70;104538;1289;25504;-69
2022/08/23 08:42:43;;;;;;;15.00;10.70;;;;;;;22.63;76.41;98241.95;104430;1288;25437;-68
2022/08/23 08:45:35;;;;;;;13.10;10.10;;;;;;;22.65;76.83;98241.07;104359;1288;25260;-68
2022/08/23 08:48:07;;;;;;;14.90;9.70;;;;;;;22.64;77.02;98241.02;104250;1288;22642;-68
2022/08/23 08:50:47;;;;;;;13.70;9.20;;;;;;;22.69;76.95;98244.02;104246;1289;26634;-69
2022/08/23 08:53:24;;;;;;;12.40;9.60;;;;;;;22.79;76.63;98243.13;104377;1289;25347;-68
2022/08/23 08:56:23;;;;;;;12.70;9.70;;;;;;;22.95;76.17;98239.99;104560;1289;22648;-70
2022/08/23 08:59:44;;;;;;;14.80;10.30;;;;;;;23.06;75.39;98241.03;104618;1289;22599;-70
2022/08/23 09:02:17;;;;;;;16.60;10.40;;;;;;;23.12;75.48;98235.25;104366;1288;25471;-69
2022/08/23 09:04:45;;;;;;;11.90;9.80;;;;;;;23.15;74.86;98235.42;104401;1288;22583;-70
2022/08/23 09:07:31;;;;;;;12.10;9.70;;;;;;;23.16;74.17;98232.69;104226;1288;22610;-70
2022/08/23 09:10:21;;;;;;;14.50;9.40;;;;;;;23.18;74.42;98233.55;104474;1288;24114;-70
2022/08/23 09:13:08;;;;;;;12.90;9.40;;;;;;;23.21;74.53;98233.56;104547;1289;29107;-70
2022/08/23 09:15:55;;;;;;;12.50;9.70;;;;;;;23.31;74.15;98231.66;104378;1289;22931;-70
2022/08/23 09:18:23;;;;;;;13.30;10.20;;;;;;;23.46;74.52;98231.29;104554;1289;22618;-70
2022/08/23 09:20:54;;;;;;;12.50;9.20;;;;;;;23.59;73.51;98232.91;104597;1289;24248;-71
2022/08/23 09:23:33;;;;;;;14.50;10.00;;;;;;;23.71;73.82;98236.33;104363;1288;22675;-69
2022/08/23 09:26:04;;;;;;;12.40;10.30;;;;;;;23.91;74.01;98237.77;104414;1288;22566;-69
2022/08/23 09:28:36;;;;;;;13.20;10.10;;;;;;;24.13;72.85;98235.55;104395;1288;24429;-69
2022/08/23 09:31:04;;;;;;;13.70;10.70;;;;;;;24.24;72.33;98238.85;104382;1288;22538;-71
2022/08/23 09:33:44;;;;;;;12.70;10.70;;;;;;;24.34;72.24;98236.67;104530;1289;24470;-70
2022/08/23 09:36:36;;;;;;;12.30;10.60;;;;;;;24.39;71.25;98236.98;104375;1289;22553;-69
2022/08/23 09:39:07;;;;;;;13.30;10.60;;;;;;;24.34;70.32;98244.11;104387;1289;22615;-68
2022/08/23 09:41:38;;;;;;;13.70;10.30;;;;;;;24.20;69.99;98243.07;104612;1289;25686;-70
2022/08/23 09:44:15;;;;;;;13.70;10.40;;;;;;;24.13;70.30;98243.18;104420;1288;25371;-68
2022/08/23 09:46:42;;;;;;;12.50;10.30;;;;;;;24.10;70.61;98240.72;104402;1288;22559;-69
2022/08/23 09:49:29;;;;;;;14.40;10.60;;;;;;;24.12;70.82;98248.23;104381;1288;24258;-68
2022/08/23 09:52:26;;;;;;;15.60;10.90;;;;;;;24.15;70.63;98249.80;104651;1288;22544;-69
2022/08/23 09:55:09;;;;;;;12.50;10.50;;;;;;;24.24;70.75;98243.67;104599;1288;25335;-67
2022/08/23 09:57:46;;;;;;;13.90;10.70;;;;;;;24.38;70.95;98240.77;104356;1288;25502;-67
2022/08/23 10:00:28;;;;;;;13.10;10.80;;;;;;;24.60;70.39;98236.23;104274;1288;22596;-68
2022/08/23 10:03:25;;;;;;;13.80;10.60;;;;;;;24.73;69.85;98236.96;104480;1289;24395;-69
2022/08/23 10:05:59;;;;;;;11.60;9.70;;;;;;;24.79;69.33;98238.05;104365;1289;30611;-67
2022/08/23 10:08:50;;;;;;;14.70;10.70;;;;;;;24.82;69.68;98246.17;105745;1289;22568;-67
2022/08/23 10:11:27;;;;;;;12.40;10.60;;;;;;;24.77;68.85;98252.05;104638;1289;22672;-69
2022/08/23 10:13:56;;;;;;;12.60;10.60;;;;;;;24.64;68.19;98252.56;104890;1288;22555;-70
2022/08/23 10:16:39;;;;;;;15.90;11.40;;;;;;;24.58;68.92;98249.47;104384;1288;24445;-70
2022/08/23 10:19:24;;;;;;;14.30;9.90;;;;;;;24.64;68.79;98248.88;104467;1288;22723;-69
2022/08/23 10:22:20;;;;;;;13.90;10.70;;;;;;;24.74;69.14;98243.91;104494;1288;25267;-69
2022/08/23 10:25:11;;;;;;;12.10;9.80;;;;;;;24.88;68.70;98247.11;104479;1288;22559;-69
2022/08/23 10:31:16;;;;;;;14.90;10.90;;;;;;;24.84;68.06;98248.48;104631;1289;25397;-69
2022/08/23 10:33:44;;;;;;;;;;;;;;;24.87;67.44;98241.65;104741;1289;24279;-67
2022/08/23 10:36:25;;;;;;;12.30;10.50;;;;;;;24.93;68.20;98244.18;104590;1288;25330;-68
2022/08/23 10:39:03;;;;;;;14.30;10.80;;;;;;;25.08;68.82;98246.35;104593;1289;24327;-68
2022/08/23 10:41:52;;;;;;;16.90;11.70;;;;;;;25.31;68.14;98247.94;104662;1288;22553;-69
2022/08/23 10:44:24;;;;;;;12.50;10.40;;;;;;;25.55;66.90;98249.35;104569;1289;22545;-69
2022/08/23 10:47:40;;;;;;;15.20;11.00;;;;;;;25.78;65.98;98251.90;104608;1289;30766;-68
2022/08/23 10:50:18;;;;;;;12.30;10.60;;;;;;;25.69;65.28;98253.94;104635;1289;24426;-68
2022/08/23 10:52:54;;;;;;;15.70;9.80;;;;;;;25.63;65.52;98254.77;104626;1289;24498;-67
2022/08/23 10:55:35;;;;;;;14.20;10.90;;;;;;;25.55;65.64;98255.06;104536;1288;22893;-67
2022/08/23 10:58:06;;;;;;;13.30;11.00;;;;;;;25.46;65.83;98259.48;104424;1288;25519;-69
2022/08/23 11:00:36;;;;;;;12.10;10.70;;;;;;;25.52;66.49;98258.41;104452;1288;24302;-68
2022/08/23 11:03:40;;;;;;;12.50;10.90;;;;;;;25.69;66.45;98261.65;104429;1288;22563;-68
2022/08/23 11:06:35;;;;;;;11.60;10.30;;;;;;;25.79;65.40;98259.34;104534;1288;25369;-68
2022/08/23 11:09:26;;;;;;;14.80;10.80;;;;;;;25.90;65.80;98263.02;104590;1289;24291;-69
2022/08/23 11:12:10;;;;;;;11.70;10.00;;;;;;;26.06;65.42;98259.70;103731;1294;25251;-69
2022/08/23 11:14:47;;;;;;;11.70;10.00;;;;;;;26.12;64.85;98263.73;103662;1296;22929;-68
2022/08/23 11:17:42;;;;;;;12.90;10.90;;;;;;;26.09;64.45;98267.45;103541;1294;24338;-68
2022/08/23 11:20:13;;;;;;;11.70;10.50;;;;;;;26.13;64.60;98267.80;103838;1294;22723;-68
2022/08/23 11:22:56;;;;;;;12.70;10.40;;;;;;;26.44;64.56;98267.18;103665;1294;23953;-68
2022/08/23 11:25:23;;;;;;;11.40;10.00;;;;;;;26.72;62.95;98272.05;103602;1292;25468;-67
2022/08/23 11:28:22;;;;;;;11.80;10.30;;;;;;;26.81;62.24;98271.81;103933;1295;22538;-67
2022/08/23 11:30:56;;;;;;;12.50;9.50;;;;;;;26.82;61.19;98276.02;104026;1292;22585;-68
2022/08/23 11:33:41;;;;;;;11.30;10.10;;;;;;;26.86;60.76;98275.00;103680;1293;22913;-68
2022/08/23 11:36:09;;;;;;;11.70;9.60;;;;;;;27.07;61.26;98275.46;103954;1292;25265;-72
2022/08/23 11:38:42;;;;;;;11.90;9.40;;;;;;;27.35;60.53;98268.78;103722;1293;25455;-71
2022/08/23 11:41:18;;;;;;;13.10;10.00;;;;;;;27.59;58.40;98270.77;103779;1293;22544;-70
2022/08/23 11:44:06;;;;;;;13.50;10.10;;;;;;;27.61;57.67;98267.88;103838;1293;24611;-68
2022/08/23 11:46:35;;;;;;;13.50;9.40;;;;;;;27.63;57.96;98264.19;103425;1298;24510;-69
2022/08/23 11:49:28;;;;;;;13.50;9.90;;;;;;;27.70;57.50;98265.23;103862;1297;24331;-69
2022/08/23 11:52:01;;;;;;;10.00;8.80;;;;;;;27.74;57.35;98263.70;103465;1297;25391;-69
2022/08/23 11:54:44;;;;;;;11.20;8.60;;;;;;;27.77;56.83;98261.63;103519;1297;25662;-69
2022/08/23 11:57:41;;;;;;;9.30;8.40;;;;;;;27.92;56.65;98259.59;103606;1295;24651;-69
2022/08/23 12:00:20;;;;;;;13.40;8.50;;;;;;;28.11;57.42;98259.30;103578;1295;25338;-69
2022/08/23 12:02:54;;;;;;;9.20;8.10;;;;;;;28.32;56.38;98261.98;103585;1295;22725;-70
2022/08/23 12:05:31;;;;;;;13.00;8.90;;;;;;;28.38;55.90;98264.51;103567;1295;25515;-68
2022/08/23 12:08:04;;;;;;;12.00;9.70;;;;;;;28.34;55.68;98267.95;103499;1295;24708;-69
2022/08/23 12:10:40;;;;;;;10.00;9.10;;;;;;;28.30;56.21;98264.65;103541;1297;22689;-68
2022/08/23 12:13:19;;;;;;;10.20;8.60;;;;;;;28.29;56.44;98265.60;103797;1298;22556;-71
2022/08/23 12:16:27;;;;;;;10.00;9.00;;;;;;;28.41;56.69;98271.30;103625;1297;25362;-70
2022/08/23 12:19:01;;;;;;;11.50;9.70;;;;;;;28.54;55.55;98267.98;103735;1296;29817;-68
2022/08/23 12:21:46;;;;;;;9.90;8.90;;;;;;;28.50;55.37;98270.59;103405;1297;24440;-69
2022/08/23 12:24:25;;;;;;;9.60;8.50;;;;;;;28.55;55.33;98274.00;103793;1291;25419;-69
2022/08/23 12:27:20;;;;;;;10.70;9.10;;;;;;;28.61;54.85;98274.03;104331;1289;25274;-69
2022/08/23 12:30:19;;;;;;;10.90;9.30;;;;;;;28.61;53.81;98266.34;104533;1289;30507;-69
2022/08/23 12:33:01;;;;;;;12.20;8.20;;;;;;;28.67;54.13;98267.19;104489;1289;25387;-70
2022/08/23 12:35:37;;;;;;;9.40;8.20;;;;;;;28.75;54.49;98264.45;104574;1290;22554;-68
2022/08/23 12:38:28;;;;;;;9.50;8.50;;;;;;;28.84;53.53;98263.02;104461;1289;24267;-69
2022/08/23 12:40:55;;;;;;;9.80;8.50;;;;;;;28.84;52.91;98261.82;104320;1288;22707;-68
2022/08/23 12:43:26;;;;;;;9.40;8.50;;;;;;;28.82;52.85;98257.38;104365;1289;22711;-68
2022/08/23 12:45:56;;;;;;;9.70;8.70;;;;;;;28.82;52.35;98254.34;104434;1288;24246;-68
2022/08/23 12:48:28;;;;;;;10.30;8.60;;;;;;;28.68;52.38;98255.77;104357;1288;22680;-69
2022/08/23 12:51:11;;;;;;;11.30;8.50;;;;;;;28.63;53.16;98257.49;104375;1288;24247;-69
2022/08/23 12:53:44;;;;;;;10.50;8.40;;;;;;;28.61;52.85;98260.58;104404;1288;25468;-70
2022/08/23 12:56:24;;;;;;;8.50;7.50;;;;;;;28.52;53.06;98260.87;104483;1288;22557;-69
2022/08/23 12:58:56;;;;;;;9.10;7.50;;;;;;;28.48;53.77;98264.40;104403;1288;25366;-68
2022/08/23 13:01:30;;;;;;;8.90;7.90;;;;;;;28.34;53.32;98264.19;104486;1290;24248;-69
2022/08/23 13:04:04;;;;;;;9.10;7.70;;;;;;;28.30;53.63;98262.50;104579;1290;24303;-68
2022/08/23 13:06:37;;;;;;;9.00;7.70;;;;;;;28.33;53.83;98263.13;104722;1287;22883;-68
2022/08/23 13:09:31;;;;;;;9.20;8.00;;;;;;;28.39;53.60;98260.92;104476;1289;24385;-69
2022/08/23 13:12:01;;;;;;;9.00;8.00;;;;;;;28.40;53.88;98262.00;104467;1291;22871;-69
2022/08/23 13:14:31;;;;;;;10.50;8.10;;;;;;;28.45;54.65;98261.42;104469;1288;25327;-70
2022/08/23 13:17:30;;;;;;;8.50;7.60;;;;;;;28.54;54.27;98262.60;104370;1288;25271;-70
2022/08/23 13:20:00;;;;;;;10.10;7.60;;;;;;;28.48;52.21;98259.51;104508;1290;23083;-68
2022/08/23 13:22:30;;;;;;;11.80;8.00;;;;;;;28.46;53.39;98256.25;104545;1290;25324;-68
2022/08/23 13:25:03;;;;;;;9.10;8.10;;;;;;;28.55;52.54;98251.35;104591;1290;22553;-69
2022/08/23 13:27:33;;;;;;;8.20;7.40;;;;;;;28.68;52.64;98243.75;104578;1289;25385;-69
2022/08/23 13:30:09;;;;;;;10.00;7.80;;;;;;;28.77;52.60;98251.05;104435;1290;25499;-69
2022/08/23 13:32:36;;;;;;;8.60;7.60;;;;;;;28.73;51.98;98252.59;104374;1289;24604;-69
2022/08/23 13:35:22;;;;;;;9.80;7.80;;;;;;;28.72;52.05;98251.41;104353;1289;25508;-69
2022/08/23 13:37:51;;;;;;;9.20;8.00;;;;;;;28.76;51.78;98246.95;104372;1289;25261;-69
2022/08/23 13:40:24;;;;;;;9.30;7.60;;;;;;;28.67;52.91;98248.21;104358;1289;25499;-69
2022/08/23 13:43:02;;;;;;;7.90;7.20;;;;;;;28.53;52.91;98249.05;104414;1290;24221;-69
2022/08/23 13:45:33;;;;;;;11.20;8.00;;;;;;;28.42;53.36;98244.81;104501;1288;25284;-69
2022/08/23 13:48:15;;;;;;;8.50;7.30;;;;;;;28.37;53.14;98242.31;104787;1290;22637;-69
2022/08/23 13:50:44;;;;;;;8.70;7.90;;;;;;;28.35;53.13;98236.50;104623;1288;22567;-67
2022/08/23 13:53:11;;;;;;;9.90;7.70;;;;;;;28.35;53.31;98237.06;104779;1287;22563;-68
2022/08/23 13:55:59;;;;;;;8.40;7.60;;;;;;;28.38;53.20;98240.10;104757;1290;25339;-69
2022/08/23 13:58:31;;;;;;;7.90;7.10;;;;;;;28.38;52.29;98238.33;104923;1287;25479;-68
2022/08/23 14:01:00;;;;;;;8.70;7.80;;;;;;;28.39;52.71;98238.28;104529;1288;25323;-68
2022/08/23 14:03:30;;;;;;;7.90;7.10;;;;;;;28.43;52.83;98239.23;104701;1289;24365;-68
2022/08/23 14:05:57;;;;;;;10.50;7.30;;;;;;;28.54;53.48;98240.98;104695;1290;22565;-69
2022/08/23 14:08:24;;;;;;;8.80;7.10;;;;;;;28.69;52.91;98236.39;104529;1288;25264;-68
2022/08/23 14:10:51;;;;;;;7.80;7.00;;;;;;;28.80;52.32;98239.73;104895;1289;25333;-69
2022/08/23 14:13:22;;;;;;;9.60;7.00;;;;;;;28.93;52.23;98238.77;104540;1289;22596;-69
2022/08/23 14:15:49;;;;;;;8.00;6.90;;;;;;;29.01;51.04;98236.73;104561;1289;22573;-69
2022/08/23 14:18:17;;;;;;;11.90;8.20;;;;;;;29.09;51.93;98233.44;104600;1290;22547;-69
2022/08/23 14:20:45;;;;;;;14.10;9.70;;;;;;;29.16;52.09;98235.42;104548;1289;25314;-69
2022/08/23 14:23:12;;;;;;;11.90;8.90;;;;;;;29.15;52.02;98240.39;104378;1288;25382;-69
2022/08/23 14:25:39;;;;;;;9.40;8.10;;;;;;;29.09;51.63;98240.23;104400;1288;25639;-69
2022/08/23 14:28:06;;;;;;;9.80;8.80;;;;;;;29.09;51.99;98240.50;104408;1289;22585;-69
2022/08/23 14:30:35;;;;;;;14.00;9.00;;;;;;;29.11;52.06;98240.35;104473;1289;24316;-67
2022/08/23 14:33:03;;;;;;;12.10;9.60;;;;;;;29.15;52.13;98236.45;104678;1289;24442;-69
2022/08/23 14:35:31;;;;;;;13.20;9.40;;;;;;;29.09;51.57;98232.14;104814;1287;22582;-69
2022/08/23 14:37:57;;;;;;;9.50;8.60;;;;;;;28.92;51.57;98229.36;104662;1287;25381;-69
2022/08/23 14:40:24;;;;;;;11.60;9.20;;;;;;;28.61;51.54;98228.64;104512;1287;24428;-69
2022/08/23 14:42:52;;;;;;;10.40;8.90;;;;;;;28.39;52.44;98227.86;104618;1290;25442;-69
2022/08/23 14:45:19;;;;;;;9.80;8.80;;;;;;;28.29;52.54;98228.38;104620;1288;25451;-69
2022/08/23 14:47:47;;;;;;;9.70;8.60;;;;;;;28.23;53.24;98233.45;104631;1289;22744;-69
2022/08/23 14:50:14;;;;;;;10.90;7.70;;;;;;;28.13;53.11;98228.29;104614;1289;23013;-69
2022/08/23 14:52:43;;;;;;;13.20;9.20;;;;;;;28.04;53.45;98229.80;104692;1287;25221;-68
2022/08/23 14:55:11;;;;;;;10.90;8.20;;;;;;;27.97;53.54;98228.84;104718;1287;22590;-69
2022/08/23 14:57:39;;;;;;;9.90;8.10;;;;;;;28.01;53.49;98235.01;104695;1287;26542;-69
2022/08/23 15:00:12;;;;;;;14.70;8.70;;;;;;;27.98;53.10;98241.02;104696;1287;25350;-69
2022/08/23 15:02:45;;;;;;;8.90;7.90;;;;;;;27.87;53.29;98240.49;104840;1288;30284;-69
2022/08/23 15:05:13;;;;;;;8.80;8.00;;;;;;;27.79;53.61;98242.48;104671;1288;22579;-69
2022/08/23 18:46:07;;;;;;;25.60;19.80;;;;;;;22.87;73.66;98431.27;102669;1309;563653;-68
2022/08/23 18:51:58;;;;;;;27.50;19.80;;;;;;;22.68;74.45;98441.42;104890;1287;22572;-71
2022/08/23 18:54:25;;;;;;;28.40;22.10;;;;;;;22.58;74.81;98441.89;104958;1286;23204;-68
2022/08/23 18:56:52;;;;;;;29.10;21.60;;;;;;;22.52;74.99;98444.37;104773;1287;24742;-71
2022/08/23 18:59:19;;;;;;;29.30;22.70;;;;;;;22.48;75.29;98448.31;104881;1287;22634;-72
2022/08/23 19:01:46;;;;;;;29.10;22.30;;;;;;;22.44;75.42;98447.16;104934;1287;22709;-67
2022/08/23 19:04:13;;;;;;;31.80;23.60;;;;;;;22.40;75.70;98448.66;104870;1287;23070;-68
2022/08/23 19:06:41;;;;;;;32.10;23.90;;;;;;;22.36;75.85;98443.95;104879;1287;31105;-67
2022/08/23 19:09:09;;;;;;;35.20;24.90;;;;;;;22.31;76.00;98444.86;104893;1287;25404;-67
2022/08/23 19:11:36;;;;;;;31.30;23.60;;;;;;;22.27;76.13;98441.05;104887;1287;24305;-67
2022/08/23 19:14:05;;;;;;;32.30;24.10;;;;;;;22.23;76.28;98439.75;104845;1287;25235;-67
2022/08/23 19:16:32;;;;;;;30.40;22.50;;;;;;;22.19;76.53;98441.08;105023;1287;22560;-67
2022/08/23 19:18:59;;;;;;;34.00;24.70;;;;;;;22.15;76.82;98439.27;104672;1287;22625;-67
2022/08/23 19:21:26;;;;;;;39.10;24.70;;;;;;;22.09;76.93;98442.48;104871;1287;22753;-67
2022/08/23 19:23:55;;;;;;;36.80;25.30;;;;;;;22.04;77.16;98442.57;104800;1287;22878;-67
2022/08/23 19:26:33;;;;;;;32.00;24.40;;;;;;;22.00;77.39;98455.20;104863;1287;25369;-68
2022/08/23 19:29:03;;;;;;;35.90;25.20;;;;;;;21.96;77.66;98464.59;104913;1287;25312;-67
2022/08/23 19:31:30;;;;;;;37.80;26.50;;;;;;;21.92;77.74;98469.63;104915;1287;22541;-67
2022/08/23 19:33:58;;;;;;;36.50;25.20;;;;;;;21.89;77.92;98476.21;104883;1287;22594;-67
2022/08/23 19:36:25;;;;;;;34.50;25.40;;;;;;;21.87;78.13;98478.48;104859;1287;24420;-67
2022/08/23 19:38:55;;;;;;;33.60;25.30;;;;;;;21.85;78.29;98476.28;104865;1287;25261;-67
2022/08/23 19:41:22;;;;;;;35.00;25.30;;;;;;;21.83;78.50;98476.44;104901;1287;22625;-67
2022/08/23 19:43:50;;;;;;;33.80;25.50;;;;;;;21.81;78.71;98477.31;104810;1287;25379;-67
2022/08/23 19:46:17;;;;;;;34.00;24.30;;;;;;;21.78;78.89;98478.99;104857;1287;22558;-67
2022/08/23 19:48:46;;;;;;;32.20;24.50;;;;;;;21.75;79.07;98480.14;104892;1287;25359;-67
2022/08/23 19:51:16;;;;;;;37.20;26.20;;;;;;;21.72;79.21;98478.92;104930;1287;22703;-67
2022/08/23 19:54:02;;;;;;;39.30;26.80;;;;;;;21.70;79.39;98479.73;104896;1287;24756;-68
2022/08/23 19:56:53;;;;;;;37.20;26.70;;;;;;;21.63;79.67;98482.39;104861;1287;25273;-68
2022/08/23 19:59:33;;;;;;;37.60;26.20;;;;;;;21.55;79.95;98489.49;104892;1287;22564;-68
2022/08/23 20:02:01;;;;;;;38.30;27.00;;;;;;;21.49;80.26;98495.68;104846;1287;22545;-68
2022/08/23 20:04:31;;;;;;;39.20;26.30;;;;;;;21.41;80.48;98491.46;104828;1287;24148;-68
2022/08/23 20:07:01;;;;;;;38.50;27.10;;;;;;;21.35;80.75;98497.23;104908;1287;24217;-68
2022/08/23 20:09:30;;;;;;;40.00;27.30;;;;;;;21.31;80.91;98501.20;104987;1287;25261;-69
2022/08/23 20:11:58;;;;;;;35.30;27.90;;;;;;;21.27;81.24;98506.61;104944;1287;24608;-69
2022/08/23 20:14:26;;;;;;;38.60;27.30;;;;;;;21.22;81.51;98503.13;104882;1286;22900;-69
2022/08/23 20:16:54;;;;;;;34.30;25.80;;;;;;;21.18;81.62;98505.11;104892;1285;22554;-68
2022/08/23 20:19:21;;;;;;;36.90;26.40;;;;;;;21.14;81.82;98504.59;104875;1287;22586;-68
2022/08/23 20:21:48;;;;;;;36.20;26.50;;;;;;;21.09;82.27;98503.77;104897;1287;24307;-68
2022/08/23 20:24:17;;;;;;;36.10;27.00;;;;;;;21.03;82.50;98496.27;104835;1287;22570;-68
2022/08/23 20:26:47;;;;;;;38.20;27.00;;;;;;;20.97;82.65;98495.30;104936;1287;22547;-68
2022/08/23 20:29:22;;;;;;;38.40;28.60;;;;;;;20.90;83.09;98502.61;104916;1284;25290;-68
2022/08/23 20:31:55;;;;;;;36.00;26.90;;;;;;;20.83;83.24;98507.91;104947;1287;22557;-68
2022/08/23 20:34:23;;;;;;;34.10;27.00;;;;;;;20.79;83.48;98510.70;105014;1286;22563;-69
2022/08/23 20:36:54;;;;;;;35.10;25.90;;;;;;;20.75;83.74;98513.58;104939;1287;22582;-68
2022/08/23 20:39:21;;;;;;;43.00;27.80;;;;;;;20.71;84.03;98517.54;104957;1287;22658;-68
2022/08/23 20:41:49;;;;;;;43.80;28.10;;;;;;;20.66;84.14;98514.81;104815;1287;22794;-68
2022/08/23 20:44:18;;;;;;;40.60;28.10;;;;;;;20.62;84.34;98509.30;104943;1287;24319;-68
2022/08/23 20:46:45;;;;;;;40.60;27.50;;;;;;;20.59;84.52;98508.58;104972;1287;22713;-68
2022/08/23 20:49:12;;;;;;;43.20;28.30;;;;;;;20.57;84.52;98516.02;104995;1287;24288;-68
2022/08/23 20:51:40;;;;;;;40.20;26.70;;;;;;;20.56;84.79;98515.16;104987;1287;22580;-68
2022/08/23 20:54:08;;;;;;;40.10;28.10;;;;;;;20.54;84.76;98517.98;104983;1287;24387;-68
2022/08/23 20:56:36;;;;;;;41.40;27.80;;;;;;;20.52;84.96;98518.64;104965;1287;22570;-68
2022/08/23 20:59:05;;;;;;;44.00;27.90;;;;;;;20.49;85.10;98518.08;104932;1287;22565;-68
2022/08/23 21:01:32;;;;;;;37.70;27.70;;;;;;;20.46;85.16;98520.64;105062;1287;26509;-68
2022/08/23 21:03:59;;;;;;;39.10;28.10;;;;;;;20.42;85.38;98519.78;104927;1286;25428;-68
2022/08/23 21:06:34;;;;;;;37.90;26.20;;;;;;;20.38;85.60;98515.92;104946;1287;22573;-69
2022/08/23 21:09:01;;;;;;;40.90;27.80;;;;;;;20.34;85.69;98511.04;104948;1287;30245;-68
2022/08/23 21:11:31;;;;;;;36.90;26.60;;;;;;;20.30;85.94;98502.83;104963;1287;24266;-69
2022/08/23 21:13:58;;;;;;;39.20;27.10;;;;;;;20.26;86.05;98503.91;104959;1286;22586;-68
2022/08/23 21:16:25;;;;;;;40.80;29.40;;;;;;;20.22;86.25;98506.23;104957;1287;24314;-68
2022/08/23 21:18:52;;;;;;;33.10;24.50;;;;;;;20.16;86.50;98509.06;104924;1287;22560;-69
2022/08/23 21:21:20;;;;;;;40.10;27.70;;;;;;;20.08;86.92;98507.58;104931;1287;25208;-68
2022/08/23 21:23:49;;;;;;;38.80;28.10;;;;;;;20.00;87.25;98510.23;104932;1287;23956;-68
2022/08/23 21:26:17;;;;;;;39.90;28.20;;;;;;;19.93;87.36;98514.10;104958;1287;22541;-68
2022/08/23 21:28:44;;;;;;;41.30;28.20;;;;;;;19.88;87.85;98516.69;104963;1287;22548;-69
2022/08/23 21:31:14;;;;;;;39.60;28.50;;;;;;;19.84;88.05;98516.60;104985;1287;22572;-68
2022/08/23 21:33:43;;;;;;;41.00;29.30;;;;;;;19.81;88.26;98517.04;105003;1287;24321;-68
2022/08/23 21:36:12;;;;;;;46.80;30.70;;;;;;;19.79;88.49;98517.25;105076;1285;22547;-68
2022/08/23 21:38:39;;;;;;;;;;;;;;;19.78;88.45;98523.18;105057;1287;22552;-69
2022/08/23 21:41:09;;;;;;;44.50;29.70;;;;;;;19.76;88.61;98523.65;104919;1287;24010;-69
2022/08/23 21:43:37;;;;;;;40.60;27.80;;;;;;;19.76;88.87;98529.23;105025;1287;22588;-69
2022/08/23 21:46:05;;;;;;;40.10;27.80;;;;;;;19.77;88.92;98531.52;104951;1287;22564;-69
2022/08/23 21:48:33;;;;;;;37.00;26.30;;;;;;;19.81;89.07;98527.83;105054;1287;22718;-69
2022/08/23 21:51:00;;;;;;;40.70;26.70;;;;;;;19.84;89.01;98528.05;104949;1287;22580;-69
2022/08/23 21:53:27;;;;;;;40.80;27.50;;;;;;;19.86;88.98;98541.05;104962;1287;22855;-69
2022/08/23 21:55:54;;;;;;;39.00;27.00;;;;;;;19.89;89.05;98544.86;104973;1287;22550;-69
2022/08/23 21:58:21;;;;;;;38.50;27.10;;;;;;;19.92;89.04;98550.16;104953;1286;25247;-69
2022/08/23 22:00:48;;;;;;;37.90;26.50;;;;;;;19.96;89.01;98551.09;104942;1287;24267;-69
2022/08/23 22:03:14;;;;;;;41.20;26.90;;;;;;;19.99;89.12;98545.96;104857;1287;23526;-69
2022/08/23 22:05:43;;;;;;;42.70;28.60;;;;;;;20.00;88.90;98542.94;104925;1287;24236;-69
2022/08/23 22:08:11;;;;;;;40.80;27.00;;;;;;;20.02;88.90;98544.63;104949;1287;25248;-69
2022/08/23 22:10:43;;;;;;;35.70;24.10;;;;;;;20.04;88.99;98535.69;105062;1287;23240;-69
2022/08/23 22:13:11;;;;;;;37.10;26.80;;;;;;;20.04;88.91;98530.55;105014;1287;22557;-69
2022/08/23 22:15:38;;;;;;;39.60;26.80;;;;;;;20.06;88.90;98530.05;105047;1286;25231;-68
2022/08/23 22:18:05;;;;;;;41.10;25.30;;;;;;;20.08;88.84;98525.10;104975;1287;22545;-69
2022/08/23 22:20:35;;;;;;;31.40;24.20;;;;;;;20.11;88.81;98520.13;104831;1287;25327;-70
2022/08/23 22:23:02;;;;;;;35.00;23.70;;;;;;;20.11;88.76;98516.82;104942;1287;22570;-69
2022/08/23 22:25:32;;;;;;;31.50;23.10;;;;;;;20.08;88.91;98509.13;104952;1287;22572;-69
2022/08/23 22:27:59;;;;;;;38.40;23.40;;;;;;;20.01;89.10;98502.73;104924;1287;22732;-68
2022/08/23 22:30:27;;;;;;;32.70;22.70;;;;;;;19.94;89.69;98496.17;104997;1287;25355;-69
2022/08/23 22:32:54;;;;;;;32.70;23.90;;;;;;;19.86;90.23;98496.77;104974;1287;25330;-68
2022/08/23 22:35:21;;;;;;;36.10;24.00;;;;;;;19.80;90.39;98493.07;104931;1286;25511;-69
2022/08/23 22:37:47;;;;;;;39.00;25.40;;;;;;;19.77;90.59;98495.16;104979;1287;24288;-69
2022/08/23 22:40:17;;;;;;;36.90;26.00;;;;;;;19.78;90.71;98496.88;104930;1287;22636;-69
2022/08/23 22:42:45;;;;;;;38.20;25.90;;;;;;;19.79;90.62;98500.22;104941;1287;22609;-69
2022/08/23 22:45:12;;;;;;;36.10;26.40;;;;;;;19.83;90.59;98507.88;104925;1287;22677;-69
2022/08/23 22:47:39;;;;;;;39.50;26.80;;;;;;;19.87;90.50;98502.55;104954;1287;24126;-69
2022/08/23 22:50:06;;;;;;;40.80;27.70;;;;;;;19.91;90.48;98503.48;104968;1287;25245;-69
2022/08/23 22:52:33;;;;;;;41.80;27.20;;;;;;;19.93;90.33;98503.00;104939;1286;22579;-69
2022/08/23 22:55:00;;;;;;;39.50;27.50;;;;;;;19.96;90.21;98501.34;104950;1287;22599;-69
2022/08/23 22:57:27;;;;;;;35.30;24.70;;;;;;;19.97;90.08;98497.11;104946;1287;22831;-69